INFORMAÇÕES METEOROLÓGICAS
METAR FOR SBAX
ADDS - METARS form results

(1054 UTC 18 July 2019)
Data provider http://aviationweather.gov/metar/data/
 
METAR text: SBAX 181000Z 11008KT CAVOK 11/08 Q1024
Conditions at: SBAX (ARAXA , BR) observed 1000 UTC 18 July 2019
Temperature: 11.0°C (52°F)
Dewpoint: 8.0°C (46°F) [RH = 82%]
Pressure (altimeter): 30.24 inches Hg (1024.0 mb)
Winds: from the ESE (110 degrees) at 9 MPH (8 knots; 4.1 m/s)
Visibility: 6 or more miles (10+ km)
Ceiling: ceiling and visibility are OK
Clouds: unknown
Weather: no significant weather observed at this time

 MAPA DO AEROPORTO

 INFORMAÇÕES DA PISTA
Pista 15 Tamanho da pista 6234 ft Largura da pista 98 ft
Elevação da pista 0 ft Ranhura da pista 0 ft Proa da pista 0
Pista 33 Tamanho da pista 6234 ft Largura da pista 98 ft
Elevação da pista 0 ft Ranhura da pista 0 ft Proa da pista 0

 FREQUÊNCIAS DO AEROPORTO
Tipo AFIS Nome RDO Frequência 130.35 MHZ

 AUXÍLIOS DE NAVEGAÇÃO PRÓXIMOS AO AEROPORTO
Tipo VOR-DME Nome Araxa Frequência 117000 KHZ
Tipo NDB Nome Araxa Frequência 210 KHZ





Powered by Virtual Airlines Manager [v2.6.2]